createdAt,value
2022-12-03T00:01:35.031Z,24.98
2022-12-03T00:06:36.459Z,27.65
2022-12-03T00:11:37.873Z,25.77
2022-12-03T00:16:39.292Z,28.67
2022-12-03T00:21:40.771Z,25.77
2022-12-03T00:26:42.258Z,28.25
2022-12-03T00:31:45.482Z,26.63
2022-12-03T00:36:47.082Z,28.33
2022-12-03T00:41:48.441Z,28.75
2022-12-03T00:46:49.889Z,29.77
2022-12-03T00:51:51.377Z,31.98
2022-12-03T00:56:52.776Z,29.15
2022-12-03T01:01:54.237Z,30.33
2022-12-03T01:06:56.044Z,28.98
2022-12-03T01:11:57.520Z,29.02
2022-12-03T01:16:59.104Z,36.38
2022-12-03T01:22:00.959Z,33.72
2022-12-03T01:27:02.612Z,29.33
2022-12-03T01:32:22.059Z,33.75
2022-12-03T01:37:25.667Z,37.22
2022-12-03T01:42:31.499Z,30.73
2022-12-03T01:47:37.385Z,36.55
2022-12-03T01:52:39.751Z,29.05
2022-12-03T01:57:50.277Z,39.58
2022-12-03T02:02:55.325Z,35.22
2022-12-03T02:07:57.894Z,36.55
2022-12-03T02:13:02.854Z,35.88
2022-12-03T02:18:04.543Z,34.90
2022-12-03T02:23:22.058Z,31.55
2022-12-03T02:28:23.584Z,33.97
2022-12-03T02:33:25.049Z,33.95
2022-12-03T02:38:29.184Z,35.00
2022-12-03T02:43:31.067Z,36.85
2022-12-03T02:48:36.073Z,29.10
2022-12-03T02:53:44.387Z,32.13
2022-12-03T02:58:48.540Z,40.15
2022-12-03T03:03:51.828Z,34.08
2022-12-03T03:08:53.358Z,32.95
2022-12-03T03:13:55.537Z,41.30
2022-12-03T03:18:56.971Z,36.83
2022-12-03T03:23:58.354Z,38.00
2022-12-03T03:29:00.548Z,36.03
2022-12-03T03:34:02.031Z,36.00
2022-12-03T03:39:05.410Z,36.80
2022-12-03T03:44:08.384Z,30.52
2022-12-03T03:49:10.562Z,32.15
2022-12-03T03:54:12.541Z,37.72
2022-12-03T03:59:14.188Z,33.72
2022-12-03T04:04:24.418Z,30.17
2022-12-03T04:09:25.940Z,35.10
2022-12-03T04:14:27.406Z,26.80
2022-12-03T04:19:28.825Z,33.95
2022-12-03T04:24:30.182Z,32.20
2022-12-03T04:29:31.645Z,31.42
2022-12-03T04:34:52.215Z,30.98
2022-12-03T04:39:54.084Z,28.23
2022-12-03T04:44:55.852Z,28.75
2022-12-03T04:49:57.502Z,29.33
2022-12-03T04:54:58.889Z,26.88
2022-12-03T05:00:00.272Z,29.23
2022-12-03T05:05:01.863Z,32.17
2022-12-03T05:10:04.732Z,24.45
2022-12-03T05:15:07.152Z,27.73
2022-12-03T05:20:28.393Z,33.08
2022-12-03T05:25:29.916Z,28.77
2022-12-03T05:30:31.515Z,30.23
2022-12-03T05:35:33.188Z,25.73
2022-12-03T05:40:34.586Z,28.67
2022-12-03T05:45:38.545Z,31.38
2022-12-03T05:50:43.847Z,27.77
2022-12-03T05:55:45.407Z,36.22
2022-12-03T06:00:47.005Z,35.28
2022-12-03T06:05:48.435Z,31.85
2022-12-03T06:10:49.936Z,30.42
2022-12-03T06:15:51.460Z,25.75
2022-12-03T06:20:52.989Z,30.50
2022-12-03T06:26:09.442Z,33.30
2022-12-03T06:31:10.929Z,27.80
2022-12-03T06:36:12.458Z,29.63
2022-12-03T06:41:13.883Z,32.60
2022-12-03T06:46:15.354Z,38.10
2022-12-03T06:51:16.881Z,37.13
2022-12-03T06:56:22.071Z,37.20
2022-12-03T07:01:24.216Z,33.85
2022-12-03T07:06:25.694Z,34.00
2022-12-03T07:11:33.035Z,30.65
2022-12-03T07:16:35.927Z,28.40
2022-12-03T07:21:38.010Z,34.85
2022-12-03T07:26:39.664Z,31.83
2022-12-03T07:31:41.306Z,32.42
2022-12-03T07:36:42.883Z,38.50
2022-12-03T07:41:44.321Z,34.90
2022-12-03T07:46:45.765Z,32.92
2022-12-03T07:51:53.861Z,40.95
2022-12-03T07:56:59.731Z,42.78
2022-12-03T08:02:02.832Z,48.42
2022-12-03T08:07:04.360Z,39.95
2022-12-03T08:12:15.280Z,41.70
2022-12-03T08:17:18.511Z,39.78
2022-12-03T08:22:21.001Z,38.40
2022-12-03T08:27:22.413Z,47.95
2022-12-03T08:32:24.255Z,51.40
2022-12-03T08:37:25.735Z,45.45
2022-12-03T08:42:43.768Z,43.90
2022-12-03T08:47:45.378Z,54.08
2022-12-03T08:52:46.793Z,56.55
2022-12-03T08:57:48.299Z,42.78
2022-12-03T09:02:52.294Z,44.53
2022-12-03T09:07:53.885Z,53.60
2022-12-03T09:12:55.570Z,51.45
2022-12-03T09:17:57.121Z,45.45
2022-12-03T09:23:03.940Z,57.13
2022-12-03T09:28:05.794Z,48.22
2022-12-03T09:33:07.334Z,50.85
2022-12-03T09:38:08.757Z,48.47
2022-12-03T09:43:11.356Z,51.35
2022-12-03T09:48:16.363Z,50.55
2022-12-03T09:53:20.868Z,48.33
2022-12-03T09:58:23.404Z,42.90
2022-12-03T10:03:30.118Z,47.50
2022-12-03T10:08:35.405Z,45.33
2022-12-03T10:13:37.502Z,42.78
2022-12-03T10:18:43.725Z,37.85
2022-12-03T10:23:49.615Z,48.03
2022-12-03T10:28:56.891Z,33.90
2022-12-03T10:33:58.696Z,32.85
2022-12-03T10:39:10.508Z,30.63
2022-12-03T10:44:30.664Z,30.80
2022-12-03T10:49:44.793Z,29.02
2022-12-03T10:54:51.061Z,33.83
2022-12-03T10:59:52.845Z,33.17
2022-12-03T11:04:58.066Z,27.52
2022-12-03T11:10:01.041Z,33.38
2022-12-03T11:15:07.967Z,33.20
2022-12-03T11:20:35.895Z,38.50
2022-12-03T11:25:50.783Z,46.22
2022-12-03T11:30:53.695Z,38.50
2022-12-03T11:36:07.370Z,37.88
2022-12-03T11:41:19.807Z,29.00
2022-12-03T11:46:25.753Z,37.03
2022-12-03T11:51:30.184Z,37.95
2022-12-03T11:56:31.707Z,29.33
2022-12-03T12:01:39.949Z,24.67
2022-12-03T12:06:43.969Z,23.48
2022-12-03T12:11:45.654Z,36.47
2022-12-03T12:16:55.322Z,26.20
2022-12-03T12:22:25.045Z,34.47
2022-12-03T12:27:39.167Z,28.92
2022-12-03T12:32:49.219Z,28.50
2022-12-03T12:37:59.103Z,34.67
2022-12-03T12:43:23.841Z,36.47
2022-12-03T12:48:33.690Z,37.30
2022-12-03T12:53:36.397Z,36.60
2022-12-03T12:58:37.789Z,37.50
2022-12-03T13:03:39.991Z,41.40
2022-12-03T13:08:45.108Z,54.63
2022-12-03T13:13:46.606Z,49.97
2022-12-03T13:19:01.211Z,46.15
2022-12-03T13:24:10.543Z,54.85
2022-12-03T13:29:15.914Z,52.08
2022-12-03T13:34:44.442Z,40.30
2022-12-03T13:39:48.955Z,47.00
2022-12-03T13:44:50.399Z,48.33
2022-12-03T13:50:03.496Z,54.38
2022-12-03T13:55:07.112Z,51.17
2022-12-03T14:00:09.038Z,59.88
2022-12-03T14:05:10.783Z,47.15
2022-12-03T14:10:13.144Z,48.05
2022-12-03T14:15:14.542Z,46.55
2022-12-03T14:20:16.167Z,53.65
2022-12-03T14:25:17.753Z,40.83
2022-12-03T14:30:19.295Z,49.25
2022-12-03T14:35:20.734Z,46.05
2022-12-03T14:40:22.580Z,45.00
2022-12-03T14:45:25.165Z,44.85
2022-12-03T14:50:26.692Z,44.65
2022-12-03T14:55:28.148Z,44.03
2022-12-03T15:00:30.800Z,52.60
2022-12-03T15:05:32.272Z,44.53
2022-12-03T15:10:33.678Z,45.28
2022-12-03T15:15:35.121Z,42.50
2022-12-03T15:20:37.627Z,43.95
2022-12-03T15:25:39.222Z,37.95
2022-12-03T15:30:40.708Z,43.03
2022-12-03T15:35:42.805Z,41.50
2022-12-03T15:40:45.665Z,42.63
2022-12-03T15:45:47.249Z,43.88
2022-12-03T15:50:48.697Z,38.35
2022-12-03T15:55:50.283Z,44.13
2022-12-03T16:00:51.743Z,47.15
2022-12-03T16:05:53.165Z,46.42
2022-12-03T16:10:54.655Z,50.75
2022-12-03T16:15:56.125Z,41.25
2022-12-03T16:20:57.658Z,49.00
2022-12-03T16:25:59.050Z,45.60
2022-12-03T16:31:00.522Z,41.38
2022-12-03T16:36:01.996Z,46.05
2022-12-03T16:41:03.923Z,51.78
2022-12-03T16:46:15.406Z,48.45
2022-12-03T16:51:19.317Z,52.72
2022-12-03T16:56:21.053Z,49.63
2022-12-03T17:01:23.472Z,50.72
2022-12-03T17:06:25.121Z,49.65
2022-12-03T17:11:26.678Z,55.13
2022-12-03T17:16:30.701Z,55.22
2022-12-03T17:21:35.044Z,52.20
2022-12-03T17:26:36.821Z,57.47
2022-12-03T17:31:42.511Z,59.45
2022-12-03T17:36:44.454Z,57.23
2022-12-03T17:41:46.064Z,67.82
2022-12-03T17:46:47.641Z,66.25
2022-12-03T17:51:49.357Z,71.82
2022-12-03T17:56:50.923Z,70.78
2022-12-03T18:01:52.476Z,65.80
2022-12-03T18:06:57.469Z,64.90
2022-12-03T18:12:02.142Z,62.20
2022-12-03T18:17:03.645Z,63.05
2022-12-03T18:22:05.431Z,69.20
2022-12-03T18:27:06.933Z,67.00
2022-12-03T18:32:27.098Z,66.53
2022-12-03T18:37:30.045Z,72.05
2022-12-03T18:42:31.521Z,59.78
2022-12-03T18:47:32.967Z,60.13
2022-12-03T18:52:34.657Z,68.35
2022-12-03T18:57:36.073Z,62.10
2022-12-03T19:07:59.759Z,57.10
2022-12-03T19:13:01.354Z,58.65
2022-12-03T19:18:03.301Z,65.68
2022-12-03T19:23:04.702Z,56.85
2022-12-03T19:28:06.569Z,49.28
2022-12-03T19:33:22.622Z,61.25
2022-12-03T19:38:40.320Z,51.28
2022-12-03T19:43:43.016Z,52.17
2022-12-03T19:48:47.800Z,55.17
2022-12-03T19:53:49.461Z,54.42
2022-12-03T19:58:56.024Z,55.25
2022-12-03T20:04:00.822Z,50.47
2022-12-03T20:09:11.617Z,60.05
2022-12-03T20:14:16.779Z,52.80
2022-12-03T20:19:27.009Z,54.25
2022-12-03T20:24:30.234Z,52.15
2022-12-03T20:29:32.203Z,59.67
2022-12-03T20:34:36.073Z,51.55
2022-12-03T20:39:37.580Z,56.58
2022-12-03T20:44:40.556Z,51.50
2022-12-03T20:49:42.053Z,51.42
2022-12-03T20:54:43.832Z,60.63
2022-12-03T20:59:47.142Z,58.40
2022-12-03T21:04:48.620Z,45.25
2022-12-03T21:09:51.191Z,59.97
2022-12-03T21:14:54.527Z,60.70
2022-12-03T21:19:56.723Z,53.55
2022-12-03T21:24:58.559Z,53.50
2022-12-03T21:30:01.959Z,52.92
2022-12-03T21:35:03.688Z,57.88
2022-12-03T21:40:05.933Z,52.40
2022-12-03T21:45:08.368Z,59.30
2022-12-03T21:50:11.507Z,66.63
2022-12-03T21:55:12.936Z,57.65
2022-12-03T22:00:15.101Z,60.15
2022-12-03T22:05:17.829Z,61.92
2022-12-03T22:10:19.714Z,59.80
2022-12-03T22:15:21.108Z,67.93
2022-12-03T22:20:22.725Z,55.90
2022-12-03T22:25:24.169Z,59.30
2022-12-03T22:30:25.600Z,66.53
2022-12-03T22:35:27.075Z,56.25
2022-12-03T22:40:28.527Z,63.85
2022-12-03T22:45:29.910Z,53.17
2022-12-03T22:50:31.350Z,62.85
2022-12-03T22:55:32.942Z,63.28
2022-12-03T23:00:41.164Z,56.88
2022-12-03T23:05:42.554Z,65.80
2022-12-03T23:10:47.152Z,59.97
2022-12-03T23:15:50.835Z,62.75
2022-12-03T23:20:54.061Z,62.17
2022-12-03T23:26:00.841Z,66.00
2022-12-03T23:31:03.558Z,57.95
2022-12-03T23:36:06.267Z,62.45
2022-12-03T23:41:11.120Z,60.13
2022-12-03T23:46:26.592Z,60.38
2022-12-03T23:51:28.055Z,66.40
2022-12-03T23:56:30.881Z,66.70
